K5SM

Sunlight Airport

Sunlight Mountain, Colorado, USA
METAR K5SM 220954Z AUTO 09003KT 10SM CLR 05/M04 A3026 RMK AO2
Observed Flight Rules
May-22 @ 09:54 UTC (18 minutes ago) Visual Flight Rules
Wind Visibility Clouds
90° at 3 knots 10 miles
  • Clear skies
Temperatures Readings
Current 5°C / 41°F
Dewpoint -4°C / 25°F
Humidity 53%
Altimeter 30.26" Hg
Pressure 1025 hPa
Elevation 3232
METAR K5SM 220954Z AUTO 09003KT 10SM CLR 05/M04 A3026 RMK AO2
Observed Flight Rules
May-22 @ 09:54 UTC
(18 minutes ago)
VFR
Wind Visibility
90° at 3 knots 10 miles
Clouds
  • Clear skies
Temperature Dewpoint
5°C / 41°F -4°C / 25°F
Humidity Altimeter Pressure
53% 30.26" Hg 1025 hPa